sensor_id;sensor_type;location;lat;lon;timestamp;temperature;humidity
22450;DHT22;11392;57.390;-2.468;2023-04-25T00:02:14;2.00;99.90
22450;DHT22;11392;57.390;-2.468;2023-04-25T00:04:41;2.00;99.90
22450;DHT22;11392;57.390;-2.468;2023-04-25T00:07:09;1.90;99.90
22450;DHT22;11392;57.390;-2.468;2023-04-25T00:09:37;1.90;99.90
22450;DHT22;11392;57.390;-2.468;2023-04-25T00:12:04;1.90;99.90
22450;DHT22;11392;57.390;-2.468;2023-04-25T00:14:31;1.70;99.90
22450;DHT22;11392;57.390;-2.468;2023-04-25T00:17:01;1.70;99.90
22450;DHT22;11392;57.390;-2.468;2023-04-25T00:19:28;1.70;99.90
22450;DHT22;11392;57.390;-2.468;2023-04-25T00:21:55;1.70;99.90
22450;DHT22;11392;57.390;-2.468;2023-04-25T00:24:22;1.60;99.90
22450;DHT22;11392;57.390;-2.468;2023-04-25T00:26:49;1.50;99.90
22450;DHT22;11392;57.390;-2.468;2023-04-25T00:29:16;1.50;99.90
22450;DHT22;11392;57.390;-2.468;2023-04-25T00:31:43;1.60;99.90
22450;DHT22;11392;57.390;-2.468;2023-04-25T00:34:11;1.60;99.90
22450;DHT22;11392;57.390;-2.468;2023-04-25T00:36:38;1.60;99.90
22450;DHT22;11392;57.390;-2.468;2023-04-25T00:39:05;1.70;99.90
22450;DHT22;11392;57.390;-2.468;2023-04-25T00:41:33;1.70;99.90
22450;DHT22;11392;57.390;-2.468;2023-04-25T00:44:00;1.80;99.90
22450;DHT22;11392;57.390;-2.468;2023-04-25T00:46:29;1.90;99.90
22450;DHT22;11392;57.390;-2.468;2023-04-25T00:48:56;1.90;99.90
22450;DHT22;11392;57.390;-2.468;2023-04-25T00:51:25;1.80;99.90
22450;DHT22;11392;57.390;-2.468;2023-04-25T00:53:53;1.80;99.90
22450;DHT22;11392;57.390;-2.468;2023-04-25T00:56:21;1.80;99.90
22450;DHT22;11392;57.390;-2.468;2023-04-25T00:58:48;1.70;99.90
22450;DHT22;11392;57.390;-2.468;2023-04-25T01:01:16;1.70;99.90
22450;DHT22;11392;57.390;-2.468;2023-04-25T01:03:45;1.80;99.90
22450;DHT22;11392;57.390;-2.468;2023-04-25T01:06:13;1.80;99.90
22450;DHT22;11392;57.390;-2.468;2023-04-25T01:08:40;1.70;99.90
22450;DHT22;11392;57.390;-2.468;2023-04-25T01:11:07;1.70;99.90
22450;DHT22;11392;57.390;-2.468;2023-04-25T01:13:35;1.70;99.90
22450;DHT22;11392;57.390;-2.468;2023-04-25T01:16:02;1.70;99.90
22450;DHT22;11392;57.390;-2.468;2023-04-25T01:18:29;1.60;99.90
22450;DHT22;11392;57.390;-2.468;2023-04-25T01:21:05;1.70;99.90
22450;DHT22;11392;57.390;-2.468;2023-04-25T01:23:33;1.70;99.90
22450;DHT22;11392;57.390;-2.468;2023-04-25T01:26:00;1.70;99.90
22450;DHT22;11392;57.390;-2.468;2023-04-25T01:28:28;1.80;99.90
22450;DHT22;11392;57.390;-2.468;2023-04-25T01:30:56;1.80;99.90
22450;DHT22;11392;57.390;-2.468;2023-04-25T01:33:23;1.80;99.90
22450;DHT22;11392;57.390;-2.468;2023-04-25T01:35:50;1.70;99.90
22450;DHT22;11392;57.390;-2.468;2023-04-25T01:38:17;1.70;99.90
22450;DHT22;11392;57.390;-2.468;2023-04-25T01:40:45;1.60;99.90
22450;DHT22;11392;57.390;-2.468;2023-04-25T01:43:13;1.60;99.90
22450;DHT22;11392;57.390;-2.468;2023-04-25T01:45:41;1.60;99.90
22450;DHT22;11392;57.390;-2.468;2023-04-25T01:48:10;1.60;99.90
22450;DHT22;11392;57.390;-2.468;2023-04-25T01:50:39;1.50;99.90
22450;DHT22;11392;57.390;-2.468;2023-04-25T01:53:06;1.60;99.90
22450;DHT22;11392;57.390;-2.468;2023-04-25T01:55:34;1.60;99.90
22450;DHT22;11392;57.390;-2.468;2023-04-25T01:58:02;1.60;99.90
22450;DHT22;11392;57.390;-2.468;2023-04-25T02:00:29;1.60;99.90
22450;DHT22;11392;57.390;-2.468;2023-04-25T02:02:59;1.60;99.90
22450;DHT22;11392;57.390;-2.468;2023-04-25T02:05:27;1.60;99.90
22450;DHT22;11392;57.390;-2.468;2023-04-25T02:07:54;1.60;99.90
22450;DHT22;11392;57.390;-2.468;2023-04-25T02:10:21;1.50;99.90
22450;DHT22;11392;57.390;-2.468;2023-04-25T02:12:48;1.50;99.90
22450;DHT22;11392;57.390;-2.468;2023-04-25T02:15:15;1.60;99.90
22450;DHT22;11392;57.390;-2.468;2023-04-25T02:17:42;1.60;99.90
22450;DHT22;11392;57.390;-2.468;2023-04-25T02:20:10;1.60;99.90
22450;DHT22;11392;57.390;-2.468;2023-04-25T02:22:37;1.60;99.90
22450;DHT22;11392;57.390;-2.468;2023-04-25T02:25:04;1.50;99.90
22450;DHT22;11392;57.390;-2.468;2023-04-25T02:27:31;1.50;99.90
22450;DHT22;11392;57.390;-2.468;2023-04-25T02:29:58;1.40;99.90
22450;DHT22;11392;57.390;-2.468;2023-04-25T02:32:25;1.40;99.90
22450;DHT22;11392;57.390;-2.468;2023-04-25T02:34:53;1.40;99.90
22450;DHT22;11392;57.390;-2.468;2023-04-25T02:37:20;1.30;99.90
22450;DHT22;11392;57.390;-2.468;2023-04-25T02:39:47;1.30;99.90
22450;DHT22;11392;57.390;-2.468;2023-04-25T02:42:14;1.30;99.90
22450;DHT22;11392;57.390;-2.468;2023-04-25T02:44:41;1.30;99.90
22450;DHT22;11392;57.390;-2.468;2023-04-25T02:47:09;1.30;99.90
22450;DHT22;11392;57.390;-2.468;2023-04-25T02:49:36;1.30;99.90
22450;DHT22;11392;57.390;-2.468;2023-04-25T02:52:03;1.30;99.90
22450;DHT22;11392;57.390;-2.468;2023-04-25T02:54:30;1.40;99.90
22450;DHT22;11392;57.390;-2.468;2023-04-25T02:56:57;1.40;99.90
22450;DHT22;11392;57.390;-2.468;2023-04-25T02:59:24;1.40;99.90
22450;DHT22;11392;57.390;-2.468;2023-04-25T03:01:52;1.40;99.90
22450;DHT22;11392;57.390;-2.468;2023-04-25T03:04:19;1.40;99.90
22450;DHT22;11392;57.390;-2.468;2023-04-25T03:06:46;1.30;99.90
22450;DHT22;11392;57.390;-2.468;2023-04-25T03:09:13;1.20;99.90
22450;DHT22;11392;57.390;-2.468;2023-04-25T03:11:40;1.20;99.90
22450;DHT22;11392;57.390;-2.468;2023-04-25T03:14:07;1.20;99.90
22450;DHT22;11392;57.390;-2.468;2023-04-25T03:16:34;1.30;99.90
22450;DHT22;11392;57.390;-2.468;2023-04-25T03:19:03;1.30;99.90
22450;DHT22;11392;57.390;-2.468;2023-04-25T03:21:31;1.30;99.90
22450;DHT22;11392;57.390;-2.468;2023-04-25T03:24:03;1.20;99.90
22450;DHT22;11392;57.390;-2.468;2023-04-25T03:26:30;1.20;99.90
22450;DHT22;11392;57.390;-2.468;2023-04-25T03:28:57;1.20;99.90
22450;DHT22;11392;57.390;-2.468;2023-04-25T03:31:24;1.20;99.90
22450;DHT22;11392;57.390;-2.468;2023-04-25T03:33:51;1.20;99.90
22450;DHT22;11392;57.390;-2.468;2023-04-25T03:36:19;1.20;99.90
22450;DHT22;11392;57.390;-2.468;2023-04-25T03:38:46;1.20;99.90
22450;DHT22;11392;57.390;-2.468;2023-04-25T03:41:13;1.10;99.90
22450;DHT22;11392;57.390;-2.468;2023-04-25T03:43:40;1.10;99.90
22450;DHT22;11392;57.390;-2.468;2023-04-25T03:46:07;1.10;99.90
22450;DHT22;11392;57.390;-2.468;2023-04-25T03:48:34;1.10;99.90
22450;DHT22;11392;57.390;-2.468;2023-04-25T03:51:01;1.10;99.90
22450;DHT22;11392;57.390;-2.468;2023-04-25T03:53:28;1.10;99.90
22450;DHT22;11392;57.390;-2.468;2023-04-25T03:55:55;1.10;99.90
22450;DHT22;11392;57.390;-2.468;2023-04-25T03:58:22;1.00;99.90
22450;DHT22;11392;57.390;-2.468;2023-04-25T04:00:51;1.00;99.90
22450;DHT22;11392;57.390;-2.468;2023-04-25T04:03:18;1.10;99.90
22450;DHT22;11392;57.390;-2.468;2023-04-25T04:05:45;1.10;99.90
22450;DHT22;11392;57.390;-2.468;2023-04-25T04:08:13;1.10;99.90
22450;DHT22;11392;57.390;-2.468;2023-04-25T04:10:40;1.10;99.90
22450;DHT22;11392;57.390;-2.468;2023-04-25T04:13:07;1.00;99.90
22450;DHT22;11392;57.390;-2.468;2023-04-25T04:15:34;1.10;99.90
22450;DHT22;11392;57.390;-2.468;2023-04-25T04:18:01;1.10;99.90
22450;DHT22;11392;57.390;-2.468;2023-04-25T04:20:31;1.10;99.90
22450;DHT22;11392;57.390;-2.468;2023-04-25T04:22:58;1.10;99.90
22450;DHT22;11392;57.390;-2.468;2023-04-25T04:25:25;1.00;99.90
22450;DHT22;11392;57.390;-2.468;2023-04-25T04:27:52;1.00;99.90
22450;DHT22;11392;57.390;-2.468;2023-04-25T04:30:23;0.90;99.90
22450;DHT22;11392;57.390;-2.468;2023-04-25T04:32:51;1.00;99.90
22450;DHT22;11392;57.390;-2.468;2023-04-25T04:35:19;1.00;99.90
22450;DHT22;11392;57.390;-2.468;2023-04-25T04:37:46;1.10;99.90
22450;DHT22;11392;57.390;-2.468;2023-04-25T04:40:15;1.10;99.90
22450;DHT22;11392;57.390;-2.468;2023-04-25T04:42:43;1.20;99.90
22450;DHT22;11392;57.390;-2.468;2023-04-25T04:45:10;1.10;99.90
22450;DHT22;11392;57.390;-2.468;2023-04-25T04:47:38;1.20;99.90
22450;DHT22;11392;57.390;-2.468;2023-04-25T04:50:07;1.10;99.90
22450;DHT22;11392;57.390;-2.468;2023-04-25T04:52:36;1.00;99.90
22450;DHT22;11392;57.390;-2.468;2023-04-25T04:55:04;1.00;99.90
22450;DHT22;11392;57.390;-2.468;2023-04-25T04:57:32;1.00;99.90
22450;DHT22;11392;57.390;-2.468;2023-04-25T04:59:59;1.10;99.90
22450;DHT22;11392;57.390;-2.468;2023-04-25T05:02:27;1.00;99.90
22450;DHT22;11392;57.390;-2.468;2023-04-25T05:04:56;1.10;99.90
22450;DHT22;11392;57.390;-2.468;2023-04-25T05:07:23;1.10;99.90
22450;DHT22;11392;57.390;-2.468;2023-04-25T05:09:50;1.10;99.90
22450;DHT22;11392;57.390;-2.468;2023-04-25T05:12:17;1.20;99.90
22450;DHT22;11392;57.390;-2.468;2023-04-25T05:14:44;1.20;99.90
22450;DHT22;11392;57.390;-2.468;2023-04-25T05:17:11;1.20;99.90
22450;DHT22;11392;57.390;-2.468;2023-04-25T05:19:39;1.10;99.90
22450;DHT22;11392;57.390;-2.468;2023-04-25T05:22:06;1.10;99.90
22450;DHT22;11392;57.390;-2.468;2023-04-25T05:24:33;1.10;99.90
22450;DHT22;11392;57.390;-2.468;2023-04-25T05:27:00;1.10;99.90
22450;DHT22;11392;57.390;-2.468;2023-04-25T05:29:27;1.10;99.90
22450;DHT22;11392;57.390;-2.468;2023-04-25T05:31:54;1.10;99.90
22450;DHT22;11392;57.390;-2.468;2023-04-25T05:34:21;1.20;99.90
22450;DHT22;11392;57.390;-2.468;2023-04-25T05:36:48;1.20;99.90
22450;DHT22;11392;57.390;-2.468;2023-04-25T05:39:16;1.20;99.90
22450;DHT22;11392;57.390;-2.468;2023-04-25T05:41:44;1.20;99.90
22450;DHT22;11392;57.390;-2.468;2023-04-25T05:44:11;1.20;99.90
22450;DHT22;11392;57.390;-2.468;2023-04-25T05:46:38;1.10;99.90
22450;DHT22;11392;57.390;-2.468;2023-04-25T05:49:05;1.20;99.90
22450;DHT22;11392;57.390;-2.468;2023-04-25T05:51:32;1.20;99.90
22450;DHT22;11392;57.390;-2.468;2023-04-25T05:53:59;1.30;99.90
22450;DHT22;11392;57.390;-2.468;2023-04-25T05:56:26;1.20;99.90
22450;DHT22;11392;57.390;-2.468;2023-04-25T05:58:53;1.20;99.90
22450;DHT22;11392;57.390;-2.468;2023-04-25T06:01:21;1.20;99.90
22450;DHT22;11392;57.390;-2.468;2023-04-25T06:03:49;1.20;99.90
22450;DHT22;11392;57.390;-2.468;2023-04-25T06:06:16;1.20;99.90
22450;DHT22;11392;57.390;-2.468;2023-04-25T06:08:43;1.20;99.90
22450;DHT22;11392;57.390;-2.468;2023-04-25T06:11:11;1.30;99.90
22450;DHT22;11392;57.390;-2.468;2023-04-25T06:13:38;1.30;99.90
22450;DHT22;11392;57.390;-2.468;2023-04-25T06:16:05;1.60;99.90
22450;DHT22;11392;57.390;-2.468;2023-04-25T06:18:32;1.70;99.90
22450;DHT22;11392;57.390;-2.468;2023-04-25T06:20:59;1.80;99.90
22450;DHT22;11392;57.390;-2.468;2023-04-25T06:23:27;1.90;99.90
22450;DHT22;11392;57.390;-2.468;2023-04-25T06:25:54;2.00;99.90
22450;DHT22;11392;57.390;-2.468;2023-04-25T06:28:21;2.10;99.90
22450;DHT22;11392;57.390;-2.468;2023-04-25T06:30:48;2.30;99.90
22450;DHT22;11392;57.390;-2.468;2023-04-25T06:33:15;2.60;99.90
22450;DHT22;11392;57.390;-2.468;2023-04-25T06:35:42;2.60;99.90
22450;DHT22;11392;57.390;-2.468;2023-04-25T06:38:09;2.70;99.90
22450;DHT22;11392;57.390;-2.468;2023-04-25T06:40:36;2.70;99.90
22450;DHT22;11392;57.390;-2.468;2023-04-25T06:43:04;2.70;99.90
22450;DHT22;11392;57.390;-2.468;2023-04-25T06:45:31;2.80;99.90
22450;DHT22;11392;57.390;-2.468;2023-04-25T06:47:58;2.90;99.90
22450;DHT22;11392;57.390;-2.468;2023-04-25T06:50:25;3.00;99.90
22450;DHT22;11392;57.390;-2.468;2023-04-25T06:52:52;2.90;99.90
22450;DHT22;11392;57.390;-2.468;2023-04-25T06:55:19;2.70;99.90
22450;DHT22;11392;57.390;-2.468;2023-04-25T06:57:46;2.80;99.90
22450;DHT22;11392;57.390;-2.468;2023-04-25T07:00:13;2.80;99.90
22450;DHT22;11392;57.390;-2.468;2023-04-25T07:02:40;2.80;99.90
22450;DHT22;11392;57.390;-2.468;2023-04-25T07:05:10;3.00;99.90
22450;DHT22;11392;57.390;-2.468;2023-04-25T07:07:37;3.20;99.90
22450;DHT22;11392;57.390;-2.468;2023-04-25T07:10:04;3.40;99.90
22450;DHT22;11392;57.390;-2.468;2023-04-25T07:12:32;3.40;99.90
22450;DHT22;11392;57.390;-2.468;2023-04-25T07:14:59;3.60;99.90
22450;DHT22;11392;57.390;-2.468;2023-04-25T07:17:26;3.80;99.90
22450;DHT22;11392;57.390;-2.468;2023-04-25T07:19:53;3.90;99.90
22450;DHT22;11392;57.390;-2.468;2023-04-25T07:22:20;3.90;99.90
22450;DHT22;11392;57.390;-2.468;2023-04-25T07:24:47;3.90;99.90
22450;DHT22;11392;57.390;-2.468;2023-04-25T07:27:15;3.70;99.90
22450;DHT22;11392;57.390;-2.468;2023-04-25T07:29:42;3.60;99.90
22450;DHT22;11392;57.390;-2.468;2023-04-25T07:32:09;3.60;99.90
22450;DHT22;11392;57.390;-2.468;2023-04-25T07:34:39;3.30;99.90
22450;DHT22;11392;57.390;-2.468;2023-04-25T07:37:06;3.60;99.90
22450;DHT22;11392;57.390;-2.468;2023-04-25T07:39:33;4.20;99.90
22450;DHT22;11392;57.390;-2.468;2023-04-25T07:42:00;4.60;99.90
22450;DHT22;11392;57.390;-2.468;2023-04-25T07:44:28;5.10;99.90
22450;DHT22;11392;57.390;-2.468;2023-04-25T07:46:57;5.40;99.90
22450;DHT22;11392;57.390;-2.468;2023-04-25T07:49:24;5.70;99.90
22450;DHT22;11392;57.390;-2.468;2023-04-25T07:51:51;6.20;99.90
22450;DHT22;11392;57.390;-2.468;2023-04-25T07:54:18;6.30;99.90
22450;DHT22;11392;57.390;-2.468;2023-04-25T07:56:45;6.40;99.90
22450;DHT22;11392;57.390;-2.468;2023-04-25T07:59:19;6.10;99.90
22450;DHT22;11392;57.390;-2.468;2023-04-25T08:01:46;6.00;99.90
22450;DHT22;11392;57.390;-2.468;2023-04-25T08:04:13;6.10;99.90
22450;DHT22;11392;57.390;-2.468;2023-04-25T08:06:41;6.10;99.90
22450;DHT22;11392;57.390;-2.468;2023-04-25T08:09:09;6.30;99.90
22450;DHT22;11392;57.390;-2.468;2023-04-25T08:11:36;6.70;99.90
22450;DHT22;11392;57.390;-2.468;2023-04-25T08:14:03;6.80;99.90
22450;DHT22;11392;57.390;-2.468;2023-04-25T08:16:30;6.70;99.90
22450;DHT22;11392;57.390;-2.468;2023-04-25T08:18:58;6.60;99.90
22450;DHT22;11392;57.390;-2.468;2023-04-25T08:21:26;6.00;99.90
22450;DHT22;11392;57.390;-2.468;2023-04-25T08:23:54;5.60;99.90
22450;DHT22;11392;57.390;-2.468;2023-04-25T08:26:21;5.20;99.90
22450;DHT22;11392;57.390;-2.468;2023-04-25T08:28:48;5.30;99.90
22450;DHT22;11392;57.390;-2.468;2023-04-25T08:31:15;5.80;99.90
22450;DHT22;11392;57.390;-2.468;2023-04-25T08:33:42;5.70;99.90
22450;DHT22;11392;57.390;-2.468;2023-04-25T08:36:10;4.40;99.90
22450;DHT22;11392;57.390;-2.468;2023-04-25T08:38:37;3.60;99.90
22450;DHT22;11392;57.390;-2.468;2023-04-25T08:41:05;3.30;99.90
22450;DHT22;11392;57.390;-2.468;2023-04-25T08:43:34;3.20;99.90
22450;DHT22;11392;57.390;-2.468;2023-04-25T08:46:02;3.70;99.90
22450;DHT22;11392;57.390;-2.468;2023-04-25T08:48:32;4.40;99.90
22450;DHT22;11392;57.390;-2.468;2023-04-25T08:51:02;5.20;99.90
22450;DHT22;11392;57.390;-2.468;2023-04-25T08:53:32;5.80;99.90
22450;DHT22;11392;57.390;-2.468;2023-04-25T08:56:01;6.20;99.90
22450;DHT22;11392;57.390;-2.468;2023-04-25T08:58:32;6.40;99.90
22450;DHT22;11392;57.390;-2.468;2023-04-25T09:01:00;6.80;99.90
22450;DHT22;11392;57.390;-2.468;2023-04-25T09:03:27;6.80;99.90
22450;DHT22;11392;57.390;-2.468;2023-04-25T09:05:55;7.20;99.90
22450;DHT22;11392;57.390;-2.468;2023-04-25T09:08:23;7.10;99.90
22450;DHT22;11392;57.390;-2.468;2023-04-25T09:10:50;7.50;99.90
22450;DHT22;11392;57.390;-2.468;2023-04-25T09:13:25;7.90;99.90
22450;DHT22;11392;57.390;-2.468;2023-04-25T09:15:57;8.00;99.90
22450;DHT22;11392;57.390;-2.468;2023-04-25T09:18:29;7.60;99.90
22450;DHT22;11392;57.390;-2.468;2023-04-25T09:21:08;7.50;99.90
22450;DHT22;11392;57.390;-2.468;2023-04-25T09:23:58;6.90;99.90
22450;DHT22;11392;57.390;-2.468;2023-04-25T09:26:26;6.30;99.90
22450;DHT22;11392;57.390;-2.468;2023-04-25T09:29:06;5.90;99.90
22450;DHT22;11392;57.390;-2.468;2023-04-25T09:31:34;5.80;99.90
22450;DHT22;11392;57.390;-2.468;2023-04-25T09:34:01;5.90;99.90
22450;DHT22;11392;57.390;-2.468;2023-04-25T09:36:30;6.00;99.90
22450;DHT22;11392;57.390;-2.468;2023-04-25T09:38:59;6.10;99.90
22450;DHT22;11392;57.390;-2.468;2023-04-25T09:41:28;6.20;99.90
22450;DHT22;11392;57.390;-2.468;2023-04-25T09:43:57;6.90;99.90
22450;DHT22;11392;57.390;-2.468;2023-04-25T09:46:32;7.60;99.90
22450;DHT22;11392;57.390;-2.468;2023-04-25T09:49:06;7.80;99.90
22450;DHT22;11392;57.390;-2.468;2023-04-25T09:51:34;8.70;99.90
22450;DHT22;11392;57.390;-2.468;2023-04-25T09:54:01;9.20;99.90
22450;DHT22;11392;57.390;-2.468;2023-04-25T09:56:29;9.50;99.90
22450;DHT22;11392;57.390;-2.468;2023-04-25T09:58:58;9.80;99.90
22450;DHT22;11392;57.390;-2.468;2023-04-25T10:01:26;9.40;99.90
22450;DHT22;11392;57.390;-2.468;2023-04-25T10:03:56;9.10;99.90
22450;DHT22;11392;57.390;-2.468;2023-04-25T10:06:26;8.80;99.90
22450;DHT22;11392;57.390;-2.468;2023-04-25T10:08:55;7.90;99.90
22450;DHT22;11392;57.390;-2.468;2023-04-25T10:11:24;7.40;99.90
22450;DHT22;11392;57.390;-2.468;2023-04-25T10:13:52;7.60;99.90
22450;DHT22;11392;57.390;-2.468;2023-04-25T10:16:21;8.30;99.90
22450;DHT22;11392;57.390;-2.468;2023-04-25T10:18:48;9.20;99.90
22450;DHT22;11392;57.390;-2.468;2023-04-25T10:21:16;9.40;99.90
22450;DHT22;11392;57.390;-2.468;2023-04-25T10:23:44;8.70;99.90
22450;DHT22;11392;57.390;-2.468;2023-04-25T10:26:12;8.40;99.90
22450;DHT22;11392;57.390;-2.468;2023-04-25T10:28:56;6.50;99.90
22450;DHT22;11392;57.390;-2.468;2023-04-25T10:31:24;4.80;99.90
22450;DHT22;11392;57.390;-2.468;2023-04-25T10:33:53;4.00;99.90
22450;DHT22;11392;57.390;-2.468;2023-04-25T10:36:22;3.90;99.90
22450;DHT22;11392;57.390;-2.468;2023-04-25T10:38:50;4.10;99.90
22450;DHT22;11392;57.390;-2.468;2023-04-25T10:41:18;4.60;99.90
22450;DHT22;11392;57.390;-2.468;2023-04-25T10:43:48;5.20;99.90
22450;DHT22;11392;57.390;-2.468;2023-04-25T10:48:51;6.30;99.90
22450;DHT22;11392;57.390;-2.468;2023-04-25T10:51:31;6.90;99.90
22450;DHT22;11392;57.390;-2.468;2023-04-25T10:54:18;7.10;99.90
22450;DHT22;11392;57.390;-2.468;2023-04-25T10:56:48;7.10;99.90
22450;DHT22;11392;57.390;-2.468;2023-04-25T10:59:19;7.60;99.90
22450;DHT22;11392;57.390;-2.468;2023-04-25T11:01:51;9.10;99.90
22450;DHT22;11392;57.390;-2.468;2023-04-25T11:04:29;10.40;99.90
22450;DHT22;11392;57.390;-2.468;2023-04-25T11:07:19;11.40;99.90
22450;DHT22;11392;57.390;-2.468;2023-04-25T11:09:50;12.10;99.90
22450;DHT22;11392;57.390;-2.468;2023-04-25T11:12:17;12.60;99.90
22450;DHT22;11392;57.390;-2.468;2023-04-25T11:14:44;12.80;99.90
22450;DHT22;11392;57.390;-2.468;2023-04-25T11:17:11;12.80;99.90
22450;DHT22;11392;57.390;-2.468;2023-04-25T11:19:38;12.00;99.90
22450;DHT22;11392;57.390;-2.468;2023-04-25T11:22:05;11.90;99.90
22450;DHT22;11392;57.390;-2.468;2023-04-25T11:24:34;12.20;99.90
22450;DHT22;11392;57.390;-2.468;2023-04-25T11:27:02;12.50;99.90
22450;DHT22;11392;57.390;-2.468;2023-04-25T11:29:31;13.00;99.90
22450;DHT22;11392;57.390;-2.468;2023-04-25T11:31:59;12.50;99.90
22450;DHT22;11392;57.390;-2.468;2023-04-25T11:34:29;12.50;99.90
22450;DHT22;11392;57.390;-2.468;2023-04-25T11:37:01;12.70;99.90
22450;DHT22;11392;57.390;-2.468;2023-04-25T11:39:29;13.10;99.90
22450;DHT22;11392;57.390;-2.468;2023-04-25T11:41:56;13.50;99.90
22450;DHT22;11392;57.390;-2.468;2023-04-25T11:44:23;13.00;99.90
22450;DHT22;11392;57.390;-2.468;2023-04-25T11:46:50;11.90;99.90
22450;DHT22;11392;57.390;-2.468;2023-04-25T11:49:17;10.10;99.90
22450;DHT22;11392;57.390;-2.468;2023-04-25T11:51:46;8.40;99.90
22450;DHT22;11392;57.390;-2.468;2023-04-25T11:54:14;7.10;99.90
22450;DHT22;11392;57.390;-2.468;2023-04-25T11:56:42;7.50;99.90
22450;DHT22;11392;57.390;-2.468;2023-04-25T11:59:10;7.50;99.90
22450;DHT22;11392;57.390;-2.468;2023-04-25T12:01:41;7.30;99.90
22450;DHT22;11392;57.390;-2.468;2023-04-25T12:04:22;7.80;99.90
22450;DHT22;11392;57.390;-2.468;2023-04-25T12:06:52;8.00;99.90
22450;DHT22;11392;57.390;-2.468;2023-04-25T12:09:21;8.90;99.90
22450;DHT22;11392;57.390;-2.468;2023-04-25T12:11:58;9.90;99.90
22450;DHT22;11392;57.390;-2.468;2023-04-25T12:14:27;10.90;99.90
22450;DHT22;11392;57.390;-2.468;2023-04-25T12:16:57;11.50;99.90
22450;DHT22;11392;57.390;-2.468;2023-04-25T12:19:25;12.10;99.90
22450;DHT22;11392;57.390;-2.468;2023-04-25T12:21:52;12.60;99.90
22450;DHT22;11392;57.390;-2.468;2023-04-25T12:24:26;13.10;99.90
22450;DHT22;11392;57.390;-2.468;2023-04-25T12:27:03;13.20;99.90
22450;DHT22;11392;57.390;-2.468;2023-04-25T12:29:32;12.50;99.90
22450;DHT22;11392;57.390;-2.468;2023-04-25T12:32:13;12.20;99.90
22450;DHT22;11392;57.390;-2.468;2023-04-25T12:34:41;12.20;99.90
22450;DHT22;11392;57.390;-2.468;2023-04-25T12:37:08;13.00;99.90
22450;DHT22;11392;57.390;-2.468;2023-04-25T12:39:35;13.00;99.90
22450;DHT22;11392;57.390;-2.468;2023-04-25T12:42:02;13.00;99.90
22450;DHT22;11392;57.390;-2.468;2023-04-25T12:44:34;12.50;99.90
22450;DHT22;11392;57.390;-2.468;2023-04-25T12:47:00;12.40;99.90
22450;DHT22;11392;57.390;-2.468;2023-04-25T12:49:28;11.80;99.90
22450;DHT22;11392;57.390;-2.468;2023-04-25T12:51:55;12.00;99.90
22450;DHT22;11392;57.390;-2.468;2023-04-25T12:54:22;12.40;99.90
22450;DHT22;11392;57.390;-2.468;2023-04-25T12:56:49;11.90;99.90
22450;DHT22;11392;57.390;-2.468;2023-04-25T12:59:17;12.00;99.90
22450;DHT22;11392;57.390;-2.468;2023-04-25T13:01:44;12.10;99.90
22450;DHT22;11392;57.390;-2.468;2023-04-25T13:04:12;11.40;99.90
22450;DHT22;11392;57.390;-2.468;2023-04-25T13:06:39;11.80;99.90
22450;DHT22;11392;57.390;-2.468;2023-04-25T13:09:06;12.10;99.90
22450;DHT22;11392;57.390;-2.468;2023-04-25T13:11:33;12.30;99.90
22450;DHT22;11392;57.390;-2.468;2023-04-25T13:14:00;12.20;99.90
22450;DHT22;11392;57.390;-2.468;2023-04-25T13:16:27;12.80;99.90
22450;DHT22;11392;57.390;-2.468;2023-04-25T13:18:55;12.90;99.90
22450;DHT22;11392;57.390;-2.468;2023-04-25T13:21:23;12.90;99.90
22450;DHT22;11392;57.390;-2.468;2023-04-25T13:23:50;13.30;99.90
22450;DHT22;11392;57.390;-2.468;2023-04-25T13:26:17;12.80;99.90
22450;DHT22;11392;57.390;-2.468;2023-04-25T13:28:44;12.70;99.90
22450;DHT22;11392;57.390;-2.468;2023-04-25T13:31:12;11.40;99.90
22450;DHT22;11392;57.390;-2.468;2023-04-25T13:33:39;11.00;99.90
22450;DHT22;11392;57.390;-2.468;2023-04-25T13:36:06;12.00;99.90
22450;DHT22;11392;57.390;-2.468;2023-04-25T13:38:34;12.00;99.90
22450;DHT22;11392;57.390;-2.468;2023-04-25T13:41:01;11.70;99.90
22450;DHT22;11392;57.390;-2.468;2023-04-25T13:43:28;11.50;99.90
22450;DHT22;11392;57.390;-2.468;2023-04-25T13:45:54;10.90;99.90
22450;DHT22;11392;57.390;-2.468;2023-04-25T13:48:22;10.50;99.90
22450;DHT22;11392;57.390;-2.468;2023-04-25T13:50:49;11.40;99.90
22450;DHT22;11392;57.390;-2.468;2023-04-25T13:53:17;12.50;99.90
22450;DHT22;11392;57.390;-2.468;2023-04-25T13:55:44;13.30;99.90
22450;DHT22;11392;57.390;-2.468;2023-04-25T13:58:11;13.90;99.90
22450;DHT22;11392;57.390;-2.468;2023-04-25T14:00:38;13.40;99.90
22450;DHT22;11392;57.390;-2.468;2023-04-25T14:03:06;12.70;99.90
22450;DHT22;11392;57.390;-2.468;2023-04-25T14:05:36;11.60;99.90
22450;DHT22;11392;57.390;-2.468;2023-04-25T14:08:09;10.30;99.90
22450;DHT22;11392;57.390;-2.468;2023-04-25T14:10:37;10.30;99.90
22450;DHT22;11392;57.390;-2.468;2023-04-25T14:13:04;10.00;99.90
22450;DHT22;11392;57.390;-2.468;2023-04-25T14:15:34;9.60;99.90
22450;DHT22;11392;57.390;-2.468;2023-04-25T14:18:02;9.30;99.90
22450;DHT22;11392;57.390;-2.468;2023-04-25T14:20:29;9.20;99.90
22450;DHT22;11392;57.390;-2.468;2023-04-25T14:22:57;9.00;99.90
22450;DHT22;11392;57.390;-2.468;2023-04-25T14:25:25;9.10;99.90
22450;DHT22;11392;57.390;-2.468;2023-04-25T14:27:52;9.00;99.90
22450;DHT22;11392;57.390;-2.468;2023-04-25T14:30:20;8.80;99.90
22450;DHT22;11392;57.390;-2.468;2023-04-25T14:32:51;8.90;99.90
22450;DHT22;11392;57.390;-2.468;2023-04-25T14:35:18;9.10;99.90
22450;DHT22;11392;57.390;-2.468;2023-04-25T14:37:45;9.30;99.90
22450;DHT22;11392;57.390;-2.468;2023-04-25T14:40:12;9.60;99.90
22450;DHT22;11392;57.390;-2.468;2023-04-25T14:42:42;9.60;99.90
22450;DHT22;11392;57.390;-2.468;2023-04-25T14:45:09;9.50;99.90
22450;DHT22;11392;57.390;-2.468;2023-04-25T14:47:37;9.10;99.90
22450;DHT22;11392;57.390;-2.468;2023-04-25T14:50:05;9.00;99.90
22450;DHT22;11392;57.390;-2.468;2023-04-25T14:52:32;9.70;99.90
22450;DHT22;11392;57.390;-2.468;2023-04-25T14:55:00;10.50;99.90
22450;DHT22;11392;57.390;-2.468;2023-04-25T14:57:32;10.50;99.90
22450;DHT22;11392;57.390;-2.468;2023-04-25T15:00:00;10.50;99.90
22450;DHT22;11392;57.390;-2.468;2023-04-25T15:02:28;10.30;99.90
22450;DHT22;11392;57.390;-2.468;2023-04-25T15:04:55;10.20;99.90
22450;DHT22;11392;57.390;-2.468;2023-04-25T15:07:23;10.30;99.90
22450;DHT22;11392;57.390;-2.468;2023-04-25T15:09:50;10.20;99.90
22450;DHT22;11392;57.390;-2.468;2023-04-25T15:12:17;10.30;99.90
22450;DHT22;11392;57.390;-2.468;2023-04-25T15:14:44;10.70;99.90
22450;DHT22;11392;57.390;-2.468;2023-04-25T15:17:12;10.90;99.90
22450;DHT22;11392;57.390;-2.468;2023-04-25T15:19:40;10.90;99.90
22450;DHT22;11392;57.390;-2.468;2023-04-25T15:22:07;11.40;99.90
22450;DHT22;11392;57.390;-2.468;2023-04-25T15:24:34;11.90;99.90
22450;DHT22;11392;57.390;-2.468;2023-04-25T15:27:02;12.10;99.90
22450;DHT22;11392;57.390;-2.468;2023-04-25T15:29:29;11.90;99.90
22450;DHT22;11392;57.390;-2.468;2023-04-25T15:31:57;11.40;99.90
22450;DHT22;11392;57.390;-2.468;2023-04-25T15:34:24;10.30;99.90
22450;DHT22;11392;57.390;-2.468;2023-04-25T15:36:51;10.40;99.90